createdAt,value
2018-08-22T00:00:42.555Z,25.54
2018-08-22T00:02:46.731Z,25.75
2018-08-22T00:04:50.999Z,25.69
2018-08-22T00:06:55.027Z,25.64
2018-08-22T00:08:59.563Z,25.69
2018-08-22T00:11:03.354Z,25.63
2018-08-22T00:19:42.896Z,25.19
2018-08-22T00:21:47.107Z,25.52
2018-08-22T00:23:52.381Z,25.44
2018-08-22T00:25:57.648Z,25.03
2018-08-22T00:28:02.382Z,24.96
2018-08-22T00:30:06.573Z,24.70
2018-08-22T00:32:10.458Z,25.01
2018-08-22T00:34:14.534Z,24.64
2018-08-22T00:36:18.674Z,24.71
2018-08-22T00:38:22.712Z,24.66
2018-08-22T00:40:27.881Z,24.81
2018-08-22T00:42:35.911Z,24.55
2018-08-22T00:44:41.406Z,24.65
2018-08-22T00:46:50.414Z,25.07
2018-08-22T00:48:54.283Z,25.50
2018-08-22T00:50:58.208Z,25.35
2018-08-22T00:53:07.002Z,25.33
2018-08-22T00:55:12.877Z,25.47
2018-08-22T00:57:17.801Z,25.31
2018-08-22T00:59:22.249Z,25.05
2018-08-22T01:01:26.314Z,24.80
2018-08-22T01:03:30.174Z,24.42
2018-08-22T01:05:33.849Z,24.58
2018-08-22T01:07:37.801Z,24.46
2018-08-22T01:09:41.991Z,24.57
2018-08-22T01:11:45.910Z,24.50
2018-08-22T01:13:49.460Z,24.68
2018-08-22T01:15:53.576Z,24.45
2018-08-22T01:17:57.401Z,24.62
2018-08-22T01:20:01.162Z,24.70
2018-08-22T01:22:06.435Z,25.11
2018-08-22T01:24:14.373Z,25.23
2018-08-22T01:26:21.248Z,25.44
2018-08-22T01:28:26.799Z,25.33
2018-08-22T01:30:31.849Z,25.15
2018-08-22T01:32:35.517Z,25.17
2018-08-22T01:34:39.751Z,25.43
2018-08-22T01:36:43.448Z,25.18
2018-08-22T01:38:47.105Z,25.33
2018-08-22T01:40:51.213Z,25.02
2018-08-22T01:42:55.132Z,25.13
2018-08-22T01:44:59.451Z,24.81
2018-08-22T01:47:03.601Z,24.76
2018-08-22T01:49:07.492Z,25.04
2018-08-22T01:51:15.247Z,25.29
2018-08-22T01:53:21.878Z,25.46
2018-08-22T01:55:27.865Z,25.66
2018-08-22T01:57:31.721Z,25.66
2018-08-22T01:59:35.441Z,25.48
2018-08-22T02:01:39.543Z,25.19
2018-08-22T02:03:43.174Z,25.47
2018-08-22T02:05:46.961Z,25.54
2018-08-22T02:07:51.189Z,25.67
2018-08-22T02:09:54.877Z,25.69
2018-08-22T02:11:58.520Z,25.61
2018-08-22T02:14:02.837Z,25.32
2018-08-22T02:16:06.744Z,25.46
2018-08-22T02:18:10.677Z,25.53
2018-08-22T02:20:16.329Z,25.61
2018-08-22T02:22:24.911Z,25.57
2018-08-22T02:24:30.619Z,25.45
2018-08-22T02:26:35.677Z,25.17
2018-08-22T02:28:39.357Z,25.24
2018-08-22T02:30:43.231Z,25.25
2018-08-22T02:32:46.944Z,25.04
2018-08-22T02:34:51.045Z,24.72
2018-08-22T02:36:55.304Z,24.50
2018-08-22T02:38:59.266Z,24.93
2018-08-22T02:41:02.968Z,25.18
2018-08-22T02:43:07.069Z,24.70
2018-08-22T02:45:10.935Z,24.35
2018-08-22T02:47:14.677Z,24.38
2018-08-22T02:49:19.396Z,24.67
2018-08-22T02:51:27.040Z,24.48
2018-08-22T02:53:32.293Z,24.94
2018-08-22T02:55:37.911Z,25.19
2018-08-22T02:57:42.636Z,24.92
2018-08-22T02:59:47.941Z,24.49
2018-08-22T03:01:52.887Z,24.75
2018-08-22T03:03:57.858Z,25.04
2018-08-22T03:06:02.897Z,24.94
2018-08-22T03:08:06.796Z,25.20
2018-08-22T03:10:10.764Z,24.71
2018-08-22T03:12:16.518Z,24.52
2018-08-22T03:14:20.488Z,24.67
2018-08-22T03:16:28.208Z,24.80
2018-08-22T03:18:34.881Z,25.06
2018-08-22T03:20:44.403Z,24.90
2018-08-22T03:22:48.557Z,24.82
2018-08-22T03:24:52.588Z,24.48
2018-08-22T03:26:56.258Z,24.72
2018-08-22T03:29:00.157Z,24.93
2018-08-22T03:31:03.941Z,25.02
2018-08-22T03:33:07.766Z,25.06
2018-08-22T03:35:12.040Z,25.25
2018-08-22T03:37:16.177Z,24.97
2018-08-22T03:39:20.130Z,25.10
2018-08-22T03:41:23.725Z,25.12
2018-08-22T03:43:28.909Z,24.56
2018-08-22T03:45:36.413Z,24.66
2018-08-22T03:47:41.837Z,24.45
2018-08-22T03:49:48.746Z,25.02
2018-08-22T03:51:52.451Z,24.74
2018-08-22T03:53:56.148Z,25.09
2018-08-22T03:55:59.929Z,24.66
2018-08-22T03:58:03.923Z,24.96
2018-08-22T04:00:11.182Z,24.10
2018-08-22T04:02:16.964Z,24.67
2018-08-22T04:04:21.967Z,25.09
2018-08-22T04:06:26.188Z,24.94
2018-08-22T04:08:29.877Z,24.60
2018-08-22T04:10:38.551Z,24.16
2018-08-22T04:12:42.739Z,23.88
2018-08-22T04:14:47.130Z,24.24
2018-08-22T04:16:51.579Z,24.36
2018-08-22T04:18:59.843Z,24.45
2018-08-22T04:21:03.331Z,24.66
2018-08-22T04:23:13.752Z,24.98
2018-08-22T04:25:19.436Z,24.32
2018-08-22T04:27:25.838Z,24.90
2018-08-22T04:29:31.367Z,24.65
2018-08-22T04:31:41.290Z,25.10
2018-08-22T04:33:48.717Z,25.06
2018-08-22T04:35:53.120Z,24.88
2018-08-22T04:38:00.373Z,24.56
2018-08-22T04:40:03.854Z,24.72
2018-08-22T04:42:11.362Z,24.73
2018-08-22T04:44:16.890Z,24.83
2018-08-22T04:46:22.345Z,24.90
2018-08-22T04:48:28.677Z,24.74
2018-08-22T04:50:32.417Z,24.85
2018-08-22T04:52:41.481Z,25.21
2018-08-22T04:54:45.413Z,24.90
2018-08-22T04:56:49.115Z,24.47
2018-08-22T04:58:53.266Z,24.33
2018-08-22T05:00:58.758Z,24.65
2018-08-22T05:03:02.670Z,24.06
2018-08-22T05:05:06.257Z,24.37
2018-08-22T05:07:10.151Z,24.36
2018-08-22T05:09:18.008Z,24.41
2018-08-22T05:11:24.345Z,24.15
2018-08-22T05:13:30.966Z,23.95
2018-08-22T05:15:34.448Z,23.67
2018-08-22T05:17:37.985Z,24.27
2018-08-22T05:19:43.026Z,24.42
2018-08-22T05:21:51.084Z,24.51
2018-08-22T05:23:57.144Z,24.72
2018-08-22T05:26:03.665Z,24.78
2018-08-22T05:28:07.756Z,24.82
2018-08-22T05:30:14.086Z,25.09
2018-08-22T05:32:20.022Z,24.99
2018-08-22T05:34:27.797Z,24.89
2018-08-22T05:36:33.334Z,24.67
2018-08-22T05:38:38.262Z,24.69
2018-08-22T05:40:43.025Z,24.54
2018-08-22T05:42:46.805Z,24.51
2018-08-22T05:44:51.109Z,24.68
2018-08-22T05:46:55.162Z,24.87
2018-08-22T05:48:59.101Z,25.21
2018-08-22T05:51:03.131Z,25.18
2018-08-22T05:53:06.653Z,25.04
2018-08-22T05:55:10.457Z,24.78
2018-08-22T05:57:14.085Z,24.59
2018-08-22T05:59:18.354Z,24.53
2018-08-22T06:01:25.435Z,24.69
2018-08-22T06:03:31.388Z,25.20
2018-08-22T06:05:37.847Z,25.46
2018-08-22T06:07:42.552Z,25.56
2018-08-22T06:09:47.313Z,25.69
2018-08-22T06:11:51.345Z,25.75
2018-08-22T06:13:55.865Z,25.84
2018-08-22T06:17:24.545Z,25.86
2018-08-22T06:19:32.312Z,25.75
2018-08-22T06:21:37.122Z,25.67
2018-08-22T06:23:42.773Z,25.79
2018-08-22T06:25:47.263Z,25.91
2018-08-22T06:27:51.081Z,25.91
2018-08-22T06:29:54.873Z,25.91
2018-08-22T06:31:58.863Z,25.81
2018-08-22T06:34:02.527Z,25.83
2018-08-22T06:36:06.837Z,26.00
2018-08-22T06:38:11.203Z,26.23
2018-08-22T06:40:15.603Z,26.19
2018-08-22T06:42:19.330Z,26.14
2018-08-22T06:44:23.644Z,25.67
2018-08-22T06:46:31.550Z,25.50
2018-08-22T06:48:38.249Z,25.82
2018-08-22T06:50:46.554Z,25.99
2018-08-22T06:52:51.182Z,25.74
2018-08-22T06:54:55.277Z,26.08
2018-08-22T06:56:59.364Z,26.38
2018-08-22T06:59:03.108Z,26.42
2018-08-22T07:01:06.820Z,26.55
2018-08-22T07:03:10.641Z,26.59
2018-08-22T07:05:14.407Z,26.58
2018-08-22T07:07:19.952Z,26.60
2018-08-22T07:09:24.046Z,26.69
2018-08-22T07:11:27.630Z,26.68
2018-08-22T07:13:31.383Z,26.69
2018-08-22T07:15:38.101Z,26.73
2018-08-22T07:17:42.454Z,26.44
2018-08-22T07:20:53.540Z,26.42
2018-08-22T07:22:58.101Z,26.39
2018-08-22T07:25:04.520Z,26.62
2018-08-22T07:27:12.803Z,26.54
2018-08-22T07:29:18.718Z,26.57
2018-08-22T07:31:23.374Z,26.61
2018-08-22T07:33:27.188Z,26.66
2018-08-22T07:35:33.227Z,26.73
2018-08-22T07:37:37.871Z,26.73
2018-08-22T07:39:50.049Z,26.91
2018-08-22T07:41:54.145Z,26.68
2018-08-22T07:43:58.086Z,26.83
2018-08-22T07:46:02.016Z,26.63
2018-08-22T07:48:06.958Z,26.66
2018-08-22T07:50:14.386Z,26.87
2018-08-22T07:52:23.880Z,27.04
2018-08-22T07:54:35.058Z,27.09
2018-08-22T07:56:40.048Z,27.27
2018-08-22T07:58:45.957Z,27.15
2018-08-22T08:00:51.564Z,27.05
2018-08-22T08:02:56.045Z,27.03
2018-08-22T08:05:00.480Z,27.09
2018-08-22T08:07:06.566Z,27.25
2018-08-22T08:09:13.631Z,27.11
2018-08-22T08:11:30.357Z,27.23
2018-08-22T08:14:09.436Z,27.35
2018-08-22T08:16:15.276Z,27.42
2018-08-22T08:18:22.273Z,27.59
2018-08-22T08:20:27.111Z,27.28
2018-08-22T08:22:30.924Z,27.44
2018-08-22T08:24:36.130Z,27.31
2018-08-22T08:26:42.740Z,27.48
2018-08-22T08:28:51.108Z,27.44
2018-08-22T08:31:03.354Z,27.71
2018-08-22T08:33:08.093Z,27.71
2018-08-22T08:35:11.992Z,27.66
2018-08-22T08:37:19.990Z,27.72
2018-08-22T08:39:23.882Z,27.61
2018-08-22T08:41:39.871Z,27.88
2018-08-22T08:43:43.969Z,27.89
2018-08-22T08:45:51.423Z,27.95
2018-08-22T08:47:58.887Z,28.00
2018-08-22T08:50:04.885Z,27.77
2018-08-22T08:52:11.973Z,27.80
2018-08-22T08:54:16.979Z,27.81
2018-08-22T08:56:25.884Z,27.74
2018-08-22T08:58:30.741Z,27.58
2018-08-22T09:00:34.786Z,27.53
2018-08-22T09:02:39.719Z,27.68
2018-08-22T09:04:46.506Z,27.77
2018-08-22T09:06:50.778Z,27.92
2018-08-22T09:08:56.372Z,27.98
2018-08-22T09:11:05.353Z,27.88
2018-08-22T09:13:13.044Z,28.05
2018-08-22T09:15:29.695Z,28.07
2018-08-22T09:17:34.135Z,28.06
2018-08-22T09:19:40.082Z,28.07
2018-08-22T09:21:46.185Z,28.13
2018-08-22T09:23:52.311Z,28.18
2018-08-22T09:25:56.888Z,28.05
2018-08-22T09:28:05.233Z,28.06
2018-08-22T09:30:17.086Z,28.15
2018-08-22T09:32:20.959Z,28.12
2018-08-22T09:34:31.279Z,28.20
2018-08-22T09:36:35.885Z,28.23
2018-08-22T09:38:39.946Z,28.24
2018-08-22T09:40:44.206Z,28.33
2018-08-22T09:42:47.984Z,28.16
2018-08-22T09:44:52.089Z,28.30
2018-08-22T09:46:56.533Z,28.34
2018-08-22T09:49:06.781Z,28.41
2018-08-22T09:51:29.628Z,28.34
2018-08-22T09:53:35.385Z,28.40
2018-08-22T09:55:39.887Z,28.46
2018-08-22T09:57:43.682Z,28.48
2018-08-22T09:59:47.581Z,28.53
2018-08-22T10:01:53.301Z,28.53
2018-08-22T10:03:59.814Z,28.53
2018-08-22T10:06:03.447Z,28.61
2018-08-22T10:08:07.138Z,28.58
2018-08-22T10:10:12.083Z,28.60
2018-08-22T10:12:17.615Z,28.63
2018-08-22T10:14:21.471Z,28.65
2018-08-22T10:16:26.331Z,28.67
2018-08-22T10:18:29.969Z,28.70
2018-08-22T10:20:33.632Z,28.54
2018-08-22T10:22:45.046Z,28.56
2018-08-22T10:24:55.279Z,28.65
2018-08-22T10:27:00.313Z,28.70
2018-08-22T10:29:06.196Z,28.71
2018-08-22T10:31:12.613Z,28.73
2018-08-22T10:33:19.447Z,28.76
2018-08-22T10:35:26.133Z,28.73
2018-08-22T10:37:31.152Z,28.76
2018-08-22T10:39:36.113Z,28.77
2018-08-22T10:41:39.860Z,28.77
2018-08-22T10:43:49.112Z,28.81
2018-08-22T10:45:56.041Z,28.81
2018-08-22T10:48:04.904Z,28.84
2018-08-22T10:50:28.063Z,28.78
2018-08-22T10:52:33.517Z,28.81
2018-08-22T10:54:40.923Z,28.83
2018-08-22T10:56:51.592Z,28.86
2018-08-22T10:59:11.210Z,28.92
2018-08-22T11:01:17.185Z,28.94
2018-08-22T11:03:25.369Z,28.99
2018-08-22T11:05:29.893Z,28.94
2018-08-22T11:07:34.105Z,28.99
2018-08-22T11:10:08.989Z,28.98
2018-08-22T11:12:12.991Z,29.02
2018-08-22T11:14:17.468Z,29.01
2018-08-22T11:16:23.076Z,29.01
2018-08-22T11:18:29.739Z,29.05
2018-08-22T11:20:35.937Z,29.02
2018-08-22T11:22:52.279Z,29.08
2018-08-22T11:25:08.710Z,29.12
2018-08-22T11:27:26.385Z,29.13
2018-08-22T11:29:41.221Z,29.14
2018-08-22T11:31:57.775Z,29.14
2018-08-22T11:34:13.517Z,29.15
2018-08-22T11:36:16.228Z,29.13
2018-08-22T11:38:20.876Z,29.17
2018-08-22T11:40:26.146Z,29.16
2018-08-22T11:42:32.637Z,29.23
2018-08-22T11:44:36.879Z,29.18
2018-08-22T11:46:40.629Z,29.23
2018-08-22T11:48:44.236Z,29.26
2018-08-22T11:50:49.003Z,29.27
2018-08-22T11:52:52.848Z,29.25
2018-08-22T11:55:02.116Z,29.29
2018-08-22T11:57:12.433Z,29.28
2018-08-22T11:59:22.132Z,29.33
2018-08-22T12:01:29.743Z,29.36
2018-08-22T12:03:36.470Z,29.36
2018-08-22T12:05:49.770Z,29.38
2018-08-22T12:08:07.364Z,29.40
2018-08-22T12:10:16.293Z,29.45
2018-08-22T12:12:26.765Z,29.55
2018-08-22T12:14:33.074Z,30.82
2018-08-22T12:16:42.753Z,32.87
2018-08-22T12:18:46.863Z,33.59
2018-08-22T12:20:58.084Z,34.14
2018-08-22T12:23:07.672Z,34.48
2018-08-22T12:25:13.354Z,34.86
2018-08-22T12:27:19.936Z,35.04
2018-08-22T12:29:24.486Z,35.03
2018-08-22T12:31:39.808Z,35.45
2018-08-22T12:33:43.519Z,35.87
2018-08-22T12:35:48.673Z,36.05
2018-08-22T12:37:53.783Z,36.29
2018-08-22T12:40:04.236Z,36.46
2018-08-22T12:42:11.689Z,36.66
2018-08-22T12:44:20.304Z,36.74
2018-08-22T12:46:25.822Z,36.81
2018-08-22T12:48:30.187Z,37.06
2018-08-22T12:50:34.999Z,36.89
2018-08-22T12:52:38.617Z,37.12
2018-08-22T12:54:42.714Z,37.29
2018-08-22T12:56:46.811Z,37.41
2018-08-22T12:58:52.030Z,37.53
2018-08-22T13:00:56.200Z,37.69
2018-08-22T13:03:00.845Z,37.85
2018-08-22T13:05:04.890Z,37.93
2018-08-22T13:07:15.057Z,37.98
2018-08-22T13:09:24.304Z,37.89
2018-08-22T13:11:30.961Z,37.78
2018-08-22T13:13:37.580Z,37.58
2018-08-22T13:15:41.683Z,37.91
2018-08-22T13:17:49.808Z,37.75
2018-08-22T13:19:53.412Z,37.88
2018-08-22T13:21:58.422Z,37.95
2018-08-22T13:24:03.183Z,37.61
2018-08-22T13:26:07.414Z,37.65
2018-08-22T13:28:11.230Z,37.65
2018-08-22T13:30:14.999Z,37.35
2018-08-22T13:32:26.793Z,37.27
2018-08-22T13:34:33.417Z,37.10
2018-08-22T13:36:37.726Z,36.75
2018-08-22T13:38:43.290Z,36.46
2018-08-22T13:40:48.131Z,36.14
2018-08-22T13:42:52.483Z,35.81
2018-08-22T13:44:56.063Z,35.49
2018-08-22T13:47:00.267Z,35.20
2018-08-22T13:49:08.273Z,34.88
2018-08-22T13:51:11.889Z,34.55
2018-08-22T13:53:15.840Z,34.54
2018-08-22T13:56:58.023Z,34.21
2018-08-22T13:59:06.386Z,34.18
2018-08-22T14:01:11.933Z,34.08
2018-08-22T14:03:15.654Z,33.95
2018-08-22T14:05:20.256Z,33.93
2018-08-22T14:07:25.226Z,33.86
2018-08-22T14:09:33.214Z,33.77
2018-08-22T14:11:44.126Z,33.76
2018-08-22T14:13:50.801Z,33.77
2018-08-22T14:15:57.960Z,33.69
2018-08-22T14:18:02.698Z,33.75
2018-08-22T14:20:07.709Z,33.83
2018-08-22T14:22:14.785Z,33.70
2018-08-22T14:24:20.920Z,33.74
2018-08-22T14:26:25.773Z,33.85
2018-08-22T14:28:33.046Z,33.77
2018-08-22T14:30:39.008Z,33.62
2018-08-22T14:32:49.069Z,33.67
2018-08-22T14:34:54.398Z,33.54
2018-08-22T14:37:01.657Z,33.58
2018-08-22T14:39:08.177Z,33.55
2018-08-22T14:41:12.247Z,33.55
2018-08-22T14:43:17.910Z,33.61
2018-08-22T14:45:21.595Z,33.57
2018-08-22T14:49:34.396Z,33.48
2018-08-22T14:51:42.758Z,33.52
2018-08-22T14:53:53.870Z,33.53
2018-08-22T14:56:01.776Z,33.50
2018-08-22T14:58:35.965Z,33.48
2018-08-22T15:00:46.433Z,33.46
2018-08-22T15:02:53.024Z,33.51
2018-08-22T15:04:56.539Z,33.46
2018-08-22T15:07:02.680Z,33.31
2018-08-22T15:09:12.668Z,33.47
2018-08-22T15:11:16.790Z,33.50
2018-08-22T15:13:22.245Z,33.44
2018-08-22T15:15:26.454Z,33.33
2018-08-22T15:17:32.305Z,33.50
2018-08-22T15:19:38.416Z,33.43
2018-08-22T15:21:52.484Z,33.39
2018-08-22T15:23:58.894Z,33.32
2018-08-22T15:26:03.927Z,33.36
2018-08-22T15:28:08.760Z,33.41
2018-08-22T15:30:14.069Z,33.27
2018-08-22T15:32:18.386Z,33.33
2018-08-22T15:34:30.330Z,33.38
2018-08-22T15:36:39.033Z,33.34
2018-08-22T15:38:52.134Z,33.31
2018-08-22T15:43:25.079Z,33.33
2018-08-22T15:45:46.093Z,33.30
2018-08-22T15:47:55.478Z,33.32
2018-08-22T15:50:07.400Z,33.27
2018-08-22T15:52:16.529Z,33.24
2018-08-22T15:54:23.800Z,33.23
2018-08-22T15:56:30.828Z,33.21
2018-08-22T15:58:36.773Z,33.20
2018-08-22T16:00:58.759Z,33.22
2018-08-22T16:03:07.408Z,33.22
2018-08-22T16:05:12.575Z,33.20
2018-08-22T16:07:18.527Z,33.14
2018-08-22T16:09:28.147Z,33.13
2018-08-22T16:11:32.066Z,33.16
2018-08-22T16:13:38.184Z,33.15
2018-08-22T16:16:04.954Z,33.07
2018-08-22T16:18:14.680Z,33.08
2018-08-22T16:20:20.442Z,33.03
2018-08-22T16:22:42.186Z,33.09
2018-08-22T16:24:45.831Z,32.95
2018-08-22T16:26:51.911Z,32.96
2018-08-22T16:28:59.906Z,32.94
2018-08-22T16:31:09.595Z,32.87
2018-08-22T16:33:13.529Z,32.86
2018-08-22T16:35:17.381Z,32.81
2018-08-22T16:37:20.999Z,32.77
2018-08-22T16:39:38.208Z,32.74
2018-08-22T16:41:41.921Z,32.74
2018-08-22T16:43:46.228Z,32.66
2018-08-22T16:45:56.159Z,32.69
2018-08-22T16:48:03.372Z,32.59
2018-08-22T16:50:07.478Z,32.54
2018-08-22T16:52:13.087Z,32.52
2018-08-22T16:54:18.468Z,32.48
2018-08-22T16:56:22.320Z,32.46
2018-08-22T16:58:31.132Z,32.42
2018-08-22T17:00:41.707Z,32.31
2018-08-22T17:02:45.600Z,32.32
2018-08-22T17:04:51.966Z,32.28
2018-08-22T17:06:57.959Z,32.24
2018-08-22T17:09:02.198Z,32.18
2018-08-22T17:11:07.376Z,32.11
2018-08-22T17:13:10.881Z,32.10
2018-08-22T17:15:14.554Z,32.03
2018-08-22T17:17:19.038Z,31.98
2018-08-22T17:19:23.768Z,31.95
2018-08-22T17:21:36.300Z,31.88
2018-08-22T17:23:42.557Z,31.82
2018-08-22T17:25:49.292Z,31.76
2018-08-22T17:27:53.409Z,31.67
2018-08-22T17:29:57.481Z,31.63
2018-08-22T17:32:04.278Z,31.59
2018-08-22T17:34:07.895Z,31.56
2018-08-22T17:36:15.520Z,31.44
2018-08-22T17:38:23.606Z,31.42
2018-08-22T17:42:39.585Z,31.31
2018-08-22T17:44:45.683Z,31.22
2018-08-22T17:46:50.907Z,31.18
2018-08-22T17:48:55.159Z,31.06
2018-08-22T17:50:58.751Z,31.03
2018-08-22T17:53:08.940Z,30.98
2018-08-22T17:55:12.879Z,30.93
2018-08-22T17:57:21.674Z,30.89
2018-08-22T17:59:25.729Z,30.83
2018-08-22T18:01:29.936Z,30.77
2018-08-22T18:03:36.823Z,30.69
2018-08-22T18:05:44.877Z,30.62
2018-08-22T18:07:51.226Z,30.59
2018-08-22T18:09:56.614Z,30.53
2018-08-22T18:14:18.835Z,30.42
2018-08-22T18:16:23.833Z,30.37
2018-08-22T18:18:27.389Z,30.33
2018-08-22T18:20:40.775Z,30.30
2018-08-22T18:22:48.463Z,30.25
2018-08-22T18:24:57.821Z,30.20
2018-08-22T18:27:04.607Z,30.14
2018-08-22T18:29:08.610Z,30.10
2018-08-22T18:31:13.904Z,30.07
2018-08-22T18:33:18.537Z,29.99
2018-08-22T18:35:22.742Z,29.99
2018-08-22T18:37:30.018Z,29.96
2018-08-22T18:39:36.637Z,29.91
2018-08-22T18:41:42.379Z,29.87
2018-08-22T18:43:58.822Z,29.86
2018-08-22T18:46:07.037Z,29.82
2018-08-22T18:48:11.028Z,29.77
2018-08-22T18:50:16.429Z,29.76
2018-08-22T18:52:20.514Z,29.74
2018-08-22T18:54:24.312Z,29.68
2018-08-22T18:56:29.475Z,29.67
2018-08-22T18:58:33.889Z,29.66
2018-08-22T19:00:39.117Z,29.64
2018-08-22T19:02:44.526Z,29.60
2018-08-22T19:04:53.210Z,29.52
2018-08-22T19:07:01.259Z,29.54
2018-08-22T19:09:06.144Z,29.50
2018-08-22T19:11:10.450Z,29.50
2018-08-22T19:13:16.309Z,29.48
2018-08-22T19:15:20.422Z,29.47
2018-08-22T19:17:24.602Z,29.44
2018-08-22T19:19:28.654Z,29.40
2018-08-22T19:21:32.811Z,29.39
2018-08-22T19:23:37.936Z,29.38
2018-08-22T19:25:43.911Z,29.37
2018-08-22T19:27:48.229Z,29.34
2018-08-22T19:30:00.402Z,29.32
2018-08-22T19:32:08.528Z,29.28
2018-08-22T19:34:13.543Z,29.26
2018-08-22T19:36:17.622Z,29.25
2018-08-22T19:38:27.594Z,29.24
2018-08-22T19:40:33.305Z,29.23
2018-08-22T19:42:39.630Z,29.19
2018-08-22T19:44:44.422Z,29.18
2018-08-22T19:46:48.710Z,29.17
2018-08-22T19:48:53.163Z,29.15
2018-08-22T19:50:56.840Z,29.13
2018-08-22T19:53:00.857Z,29.06
2018-08-22T19:55:06.242Z,29.04
2018-08-22T19:57:09.997Z,29.08
2018-08-22T19:59:14.949Z,29.04
2018-08-22T20:01:20.494Z,29.04
2018-08-22T20:03:29.872Z,29.01
2018-08-22T20:06:06.742Z,28.98
2018-08-22T20:10:22.988Z,28.96
2018-08-22T20:12:42.481Z,28.96
2018-08-22T20:14:52.385Z,28.94
2018-08-22T20:16:56.500Z,28.95
2018-08-22T20:19:02.523Z,28.84
2018-08-22T20:21:06.905Z,28.84
2018-08-22T20:23:10.616Z,28.75
2018-08-22T20:25:15.574Z,28.83
2018-08-22T20:27:20.625Z,28.80
2018-08-22T20:29:24.321Z,28.82
2018-08-22T20:33:42.332Z,28.79
2018-08-22T20:35:49.528Z,28.66
2018-08-22T20:37:55.485Z,28.74
2018-08-22T20:40:04.671Z,28.77
2018-08-22T20:42:10.652Z,28.76
2018-08-22T20:44:19.908Z,28.69
2018-08-22T20:46:23.932Z,28.65
2018-08-22T20:48:28.209Z,28.59
2018-08-22T20:50:31.817Z,28.58
2018-08-22T20:52:39.644Z,28.60
2018-08-22T20:54:45.430Z,28.45
2018-08-22T20:56:55.557Z,28.20
2018-08-22T20:58:59.708Z,28.14
2018-08-22T21:01:03.278Z,28.28
2018-08-22T21:03:07.624Z,28.25
2018-08-22T21:05:13.601Z,28.14
2018-08-22T21:07:21.992Z,28.04
2018-08-22T21:09:25.569Z,27.99
2018-08-22T21:11:29.542Z,28.09
2018-08-22T21:13:35.359Z,28.19
2018-08-22T21:15:42.389Z,28.13
2018-08-22T21:17:49.384Z,28.22
2018-08-22T21:19:53.907Z,28.37
2018-08-22T21:21:58.501Z,28.43
2018-08-22T21:24:02.758Z,28.45
2018-08-22T21:26:06.782Z,28.24
2018-08-22T21:28:10.359Z,28.13
2018-08-22T21:30:14.982Z,28.24
2018-08-22T21:32:18.725Z,28.08
2018-08-22T21:34:23.530Z,28.09
2018-08-22T21:36:27.380Z,27.94
2018-08-22T21:38:31.459Z,27.81
2018-08-22T21:40:35.545Z,27.77
2018-08-22T21:42:40.850Z,27.81
2018-08-22T21:44:47.494Z,27.76
2018-08-22T21:47:00.099Z,27.71
2018-08-22T21:49:09.261Z,27.54
2018-08-22T21:51:13.335Z,27.65
2018-08-22T21:53:16.938Z,27.64
2018-08-22T21:55:25.123Z,27.64
2018-08-22T21:57:31.348Z,27.59
2018-08-22T21:59:35.877Z,27.55
2018-08-22T22:02:00.875Z,27.52
2018-08-22T22:04:05.333Z,27.51
2018-08-22T22:06:11.095Z,27.41
2018-08-22T22:08:16.161Z,27.46
2018-08-22T22:10:21.211Z,27.42
2018-08-22T22:12:30.119Z,27.29
2018-08-22T22:14:35.443Z,27.24
2018-08-22T22:16:38.975Z,27.22
2018-08-22T22:18:46.227Z,27.26
2018-08-22T22:20:56.378Z,27.04
2018-08-22T22:23:01.357Z,27.09
2018-08-22T22:25:06.452Z,27.13
2018-08-22T22:27:11.308Z,27.11
2018-08-22T22:29:15.383Z,27.23
2018-08-22T22:31:19.253Z,27.14
2018-08-22T22:33:23.073Z,27.32
2018-08-22T22:35:32.188Z,27.22
2018-08-22T22:37:35.887Z,27.09
2018-08-22T22:39:46.560Z,27.11
2018-08-22T22:41:50.107Z,27.08
2018-08-22T22:43:58.042Z,27.04
2018-08-22T22:46:02.126Z,26.89
2018-08-22T22:48:06.042Z,26.78
2018-08-22T22:50:13.846Z,26.64
2018-08-22T22:52:26.815Z,26.62
2018-08-22T22:54:40.802Z,26.44
2018-08-22T22:56:44.611Z,26.26
2018-08-22T22:58:48.524Z,26.89
2018-08-22T23:00:52.557Z,27.12
2018-08-22T23:03:01.485Z,26.91
2018-08-22T23:05:06.311Z,26.37
2018-08-22T23:07:16.782Z,26.22
2018-08-22T23:09:20.742Z,26.25
2018-08-22T23:11:25.123Z,26.04
2018-08-22T23:13:33.596Z,26.51
2018-08-22T23:15:45.308Z,26.44
2018-08-22T23:17:50.295Z,26.68
2018-08-22T23:20:39.420Z,26.19
2018-08-22T23:22:45.266Z,26.20
2018-08-22T23:24:49.721Z,26.16
2018-08-22T23:26:54.095Z,26.22
2018-08-22T23:28:57.675Z,26.63
2018-08-22T23:31:04.405Z,26.45
2018-08-22T23:33:08.287Z,26.56
2018-08-22T23:35:25.164Z,26.83
2018-08-22T23:37:30.104Z,26.66
2018-08-22T23:39:37.923Z,26.10
2018-08-22T23:41:48.923Z,26.67
2018-08-22T23:43:53.312Z,26.48
2018-08-22T23:45:58.195Z,26.83
2018-08-22T23:48:03.337Z,26.88
2018-08-22T23:50:07.245Z,26.95
2018-08-22T23:52:10.994Z,27.01
2018-08-22T23:54:15.066Z,27.17
2018-08-22T23:56:23.900Z,26.96
2018-08-22T23:58:27.831Z,26.98
